createdAt,value
2018-08-24T00:02:20.161Z,10.70
2018-08-24T00:05:00.828Z,11.10
2018-08-24T00:07:42.281Z,12.90
2018-08-24T00:10:23.085Z,13.03
2018-08-24T00:13:03.907Z,12.33
2018-08-24T00:15:45.433Z,11.97
2018-08-24T00:18:27.103Z,12.23
2018-08-24T00:21:09.044Z,11.53
2018-08-24T00:23:49.953Z,12.23
2018-08-24T00:26:31.476Z,12.17
2018-08-24T00:29:12.471Z,11.27
2018-08-24T00:31:53.700Z,12.70
2018-08-24T00:34:34.225Z,12.27
2018-08-24T00:37:14.874Z,11.07
2018-08-24T00:39:55.436Z,11.27
2018-08-24T00:42:36.925Z,11.17
2018-08-24T00:45:17.637Z,10.23
2018-08-24T00:47:59.217Z,10.07
2018-08-24T00:50:40.731Z,10.50
2018-08-24T00:53:21.476Z,10.70
2018-08-24T00:56:02.946Z,10.60
2018-08-24T00:58:43.553Z,11.03
2018-08-24T01:01:24.303Z,11.37
2018-08-24T01:04:05.033Z,11.07
2018-08-24T01:06:45.850Z,11.63
2018-08-24T01:09:26.469Z,10.63
2018-08-24T01:12:12.488Z,10.83
2018-08-24T01:14:53.857Z,10.13
2018-08-24T01:17:39.634Z,11.20
2018-08-24T01:20:25.197Z,10.93
2018-08-24T01:23:06.631Z,11.30
2018-08-24T01:25:47.385Z,10.37
2018-08-24T01:28:28.035Z,11.20
2018-08-24T01:31:09.844Z,10.40
2018-08-24T01:33:51.290Z,10.10
2018-08-24T01:36:31.945Z,10.90
2018-08-24T01:39:13.501Z,10.93
2018-08-24T01:41:54.942Z,10.20
2018-08-24T01:44:36.755Z,10.30
2018-08-24T01:47:18.179Z,10.93
2018-08-24T01:49:59.638Z,9.97
2018-08-24T01:52:41.154Z,10.97
2018-08-24T01:55:21.788Z,11.00
2018-08-24T01:58:03.961Z,10.23
2018-08-24T02:00:44.824Z,12.83
2018-08-24T02:03:25.547Z,13.40
2018-08-24T02:06:07.874Z,14.83
2018-08-24T02:08:48.540Z,14.97
2018-08-24T02:11:33.458Z,15.80
2018-08-24T02:14:19.718Z,16.00
2018-08-24T02:17:01.205Z,16.40
2018-08-24T02:19:46.925Z,15.13
2018-08-24T02:22:27.527Z,13.93
2018-08-24T02:25:08.234Z,16.07
2018-08-24T02:27:49.464Z,15.00
2018-08-24T02:30:31.145Z,16.03
2018-08-24T02:33:12.059Z,15.77
2018-08-24T02:35:53.550Z,15.83
2018-08-24T02:38:35.054Z,16.57
2018-08-24T02:41:16.446Z,15.37
2018-08-24T02:43:57.174Z,15.40
2018-08-24T02:46:39.146Z,14.97
2018-08-24T02:49:20.564Z,12.93
2018-08-24T02:52:01.173Z,13.73
2018-08-24T02:54:42.670Z,13.40
2018-08-24T02:57:24.276Z,12.90
2018-08-24T03:00:05.713Z,15.03
2018-08-24T03:02:46.269Z,13.73
2018-08-24T03:05:27.127Z,14.20
2018-08-24T03:08:07.620Z,13.53
2018-08-24T03:10:48.235Z,14.90
2018-08-24T03:13:29.514Z,17.33
2018-08-24T03:16:10.816Z,18.20
2018-08-24T03:18:52.156Z,16.00
2018-08-24T03:21:32.801Z,16.90
2018-08-24T03:24:13.404Z,15.57
2018-08-24T03:26:53.942Z,15.30
2018-08-24T03:29:34.461Z,15.93
2018-08-24T03:32:15.813Z,16.87
2018-08-24T03:34:56.393Z,15.13
2018-08-24T03:37:37.048Z,16.83
2018-08-24T03:40:17.548Z,16.00
2018-08-24T03:42:58.321Z,15.73
2018-08-24T03:45:39.738Z,16.97
2018-08-24T03:48:20.302Z,17.83
2018-08-24T03:51:01.041Z,15.47
2018-08-24T03:53:42.414Z,15.27
2018-08-24T03:56:22.919Z,15.17
2018-08-24T03:59:03.597Z,13.87
2018-08-24T04:01:45.104Z,13.40
2018-08-24T04:04:26.610Z,13.97
2018-08-24T04:07:07.337Z,15.20
2018-08-24T04:09:47.900Z,13.13
2018-08-24T04:12:28.607Z,18.30
2018-08-24T04:15:09.945Z,15.00
2018-08-24T04:17:51.374Z,13.50
2018-08-24T04:20:32.305Z,15.10
2018-08-24T04:23:13.678Z,14.17
2018-08-24T04:25:54.577Z,12.67
2018-08-24T04:28:36.030Z,13.00
2018-08-24T04:31:17.409Z,15.43
2018-08-24T04:33:58.147Z,16.03
2018-08-24T04:36:39.570Z,15.57
2018-08-24T04:39:20.295Z,13.23
2018-08-24T04:42:01.713Z,13.60
2018-08-24T04:44:42.469Z,13.53
2018-08-24T04:47:23.094Z,14.57
2018-08-24T04:50:04.589Z,12.87
2018-08-24T04:52:45.173Z,15.30
2018-08-24T04:55:26.609Z,14.60
2018-08-24T04:58:07.162Z,13.67
2018-08-24T05:00:47.821Z,13.63
2018-08-24T05:03:28.420Z,14.53
2018-08-24T05:06:08.931Z,15.33
2018-08-24T05:08:50.213Z,13.60
2018-08-24T05:11:31.278Z,14.97
2018-08-24T05:14:12.058Z,14.90
2018-08-24T05:16:53.205Z,13.27
2018-08-24T05:19:34.669Z,12.43
2018-08-24T05:22:15.238Z,12.83
2018-08-24T05:24:55.859Z,12.30
2018-08-24T05:27:36.404Z,14.90
2018-08-24T05:30:17.858Z,13.00
2018-08-24T05:32:58.416Z,13.80
2018-08-24T05:35:39.204Z,14.47
2018-08-24T05:38:20.817Z,14.70
2018-08-24T05:41:02.062Z,15.20
2018-08-24T05:43:43.530Z,11.73
2018-08-24T05:46:24.234Z,9.90
2018-08-24T05:49:04.909Z,10.53
2018-08-24T05:51:45.522Z,10.13
2018-08-24T05:54:26.224Z,10.03
2018-08-24T05:57:07.664Z,10.73
2018-08-24T05:59:49.189Z,9.63
2018-08-24T06:02:30.519Z,11.63
2018-08-24T06:05:11.200Z,10.87
2018-08-24T06:07:51.763Z,10.33
2018-08-24T06:10:32.272Z,12.37
2018-08-24T06:13:16.758Z,10.83
2018-08-24T06:15:57.857Z,9.97
2018-08-24T06:18:39.170Z,9.77
2018-08-24T06:21:20.687Z,9.57
2018-08-24T06:24:01.459Z,10.40
2018-08-24T06:26:43.182Z,8.73
2018-08-24T06:29:24.629Z,9.40
2018-08-24T06:32:05.874Z,8.93
2018-08-24T06:34:46.501Z,9.10
2018-08-24T06:37:27.269Z,8.77
2018-08-24T06:40:08.929Z,8.37
2018-08-24T06:42:50.355Z,9.70
2018-08-24T06:45:30.990Z,9.60
2018-08-24T06:48:12.552Z,9.83
2018-08-24T06:50:53.099Z,9.40
2018-08-24T06:53:34.633Z,10.57
2018-08-24T06:56:16.046Z,9.60
2018-08-24T06:58:57.566Z,12.17
2018-08-24T07:01:38.316Z,13.20
2018-08-24T07:04:18.906Z,11.77
2018-08-24T07:07:00.342Z,12.97
2018-08-24T07:09:40.908Z,12.97
2018-08-24T07:12:21.539Z,10.50
2018-08-24T07:15:02.136Z,12.60
2018-08-24T07:18:03.061Z,11.33
2018-08-24T07:20:44.457Z,12.90
2018-08-24T07:23:24.977Z,12.97
2018-08-24T07:26:05.572Z,12.90
2018-08-24T07:28:47.017Z,13.87
2018-08-24T07:31:27.631Z,13.20
2018-08-24T07:34:08.984Z,12.10
2018-08-24T07:36:50.059Z,11.70
2018-08-24T07:39:31.389Z,13.93
2018-08-24T07:42:12.785Z,13.10
2018-08-24T07:44:54.586Z,13.60
2018-08-24T07:47:35.974Z,13.80
2018-08-24T07:50:17.529Z,14.40
2018-08-24T07:52:58.214Z,14.43
2018-08-24T07:55:38.896Z,12.23
2018-08-24T07:58:20.487Z,13.70
2018-08-24T08:01:02.039Z,12.50
2018-08-24T08:03:43.528Z,12.80
2018-08-24T08:06:24.128Z,13.17
2018-08-24T08:09:04.958Z,11.70
2018-08-24T08:11:45.446Z,12.83
2018-08-24T08:14:26.140Z,12.10
2018-08-24T08:17:06.721Z,11.97
2018-08-24T08:19:48.198Z,12.40
2018-08-24T08:22:28.924Z,11.53
2018-08-24T08:25:10.446Z,11.20
2018-08-24T08:27:51.702Z,11.30
2018-08-24T08:30:32.630Z,11.93
2018-08-24T08:33:13.220Z,12.50
2018-08-24T08:35:54.756Z,12.20
2018-08-24T08:38:35.491Z,10.63
2018-08-24T08:41:17.187Z,11.50
2018-08-24T08:43:58.687Z,11.40
2018-08-24T08:46:39.411Z,10.83
2018-08-24T08:49:20.939Z,10.07
2018-08-24T08:52:02.485Z,10.80
2018-08-24T08:54:44.057Z,9.80
2018-08-24T08:57:25.501Z,10.80
2018-08-24T09:00:06.357Z,11.57
2018-08-24T09:02:46.892Z,10.83
2018-08-24T09:05:27.624Z,12.57
2018-08-24T09:08:09.062Z,10.73
2018-08-24T09:10:49.656Z,23.27
2018-08-24T09:13:31.040Z,14.10
2018-08-24T09:16:11.974Z,11.53
2018-08-24T09:18:57.711Z,11.80
2018-08-24T09:21:44.299Z,9.97
2018-08-24T09:24:30.884Z,9.60
2018-08-24T09:27:17.327Z,9.43
2018-08-24T09:30:01.797Z,10.50
2018-08-24T09:32:42.667Z,11.43
2018-08-24T09:35:23.135Z,10.63
2018-08-24T09:38:03.820Z,10.30
2018-08-24T09:40:50.398Z,10.17
2018-08-24T09:43:36.904Z,9.67
2018-08-24T09:46:18.193Z,11.20
2018-08-24T09:49:04.043Z,8.90
2018-08-24T09:51:45.934Z,10.40
2018-08-24T09:54:26.894Z,11.53
2018-08-24T09:57:07.621Z,10.80
2018-08-24T09:59:49.106Z,12.13
2018-08-24T10:02:34.708Z,11.87
2018-08-24T10:05:21.194Z,11.70
2018-08-24T10:08:07.735Z,12.03
2018-08-24T10:10:49.117Z,10.07
2018-08-24T10:13:32.259Z,8.10
2018-08-24T10:16:13.675Z,6.63
2018-08-24T10:18:55.240Z,6.80
2018-08-24T10:21:35.779Z,6.90
2018-08-24T10:24:16.253Z,6.50
2018-08-24T10:26:56.890Z,6.67
2018-08-24T10:29:37.803Z,7.37
2018-08-24T10:32:19.077Z,5.73
2018-08-24T10:35:00.504Z,6.00
2018-08-24T10:37:42.262Z,6.07
2018-08-24T10:40:23.669Z,6.70
2018-08-24T10:43:04.212Z,7.10
2018-08-24T10:45:44.862Z,6.67
2018-08-24T10:48:25.409Z,6.60
2018-08-24T10:51:06.191Z,6.30
2018-08-24T10:53:47.673Z,5.37
2018-08-24T10:56:29.010Z,5.93
2018-08-24T10:59:09.539Z,5.90
2018-08-24T11:01:50.307Z,5.53
2018-08-24T11:04:31.882Z,5.57
2018-08-24T11:07:12.622Z,5.67
2018-08-24T11:09:53.909Z,6.47
2018-08-24T11:12:35.878Z,6.60
2018-08-24T11:15:16.990Z,7.00
2018-08-24T11:18:02.770Z,6.13
2018-08-24T11:20:43.302Z,6.03
2018-08-24T11:23:23.990Z,5.90
2018-08-24T11:26:05.058Z,5.93
2018-08-24T11:28:46.184Z,7.10
2018-08-24T11:31:30.408Z,6.93
2018-08-24T11:34:11.273Z,5.97
2018-08-24T11:36:51.893Z,6.20
2018-08-24T11:39:32.434Z,7.73
2018-08-24T11:42:13.179Z,6.40
2018-08-24T11:44:53.723Z,7.57
2018-08-24T11:47:34.246Z,5.60
2018-08-24T11:50:14.898Z,6.53
2018-08-24T11:52:55.602Z,7.23
2018-08-24T11:55:36.189Z,7.47
2018-08-24T11:58:16.815Z,8.10
2018-08-24T12:00:58.365Z,8.07
2018-08-24T12:03:39.743Z,7.50
2018-08-24T12:06:20.302Z,7.73
2018-08-24T12:09:01.802Z,7.87
2018-08-24T12:11:43.365Z,8.03
2018-08-24T12:14:24.846Z,8.17
2018-08-24T12:17:07.841Z,8.70
2018-08-24T12:19:49.077Z,8.93
2018-08-24T12:22:30.510Z,9.10
2018-08-24T12:25:12.026Z,8.80
2018-08-24T12:27:52.621Z,9.53
2018-08-24T12:30:34.133Z,9.53
2018-08-24T12:33:14.793Z,9.90
2018-08-24T12:35:55.745Z,9.73
2018-08-24T12:38:36.949Z,9.63
2018-08-24T12:41:17.543Z,9.70
2018-08-24T12:43:58.171Z,10.50
2018-08-24T12:46:38.918Z,11.07
2018-08-24T12:49:20.185Z,8.97
2018-08-24T12:52:01.265Z,9.43
2018-08-24T12:54:42.563Z,9.83
2018-08-24T12:57:26.933Z,8.70
2018-08-24T13:00:08.387Z,9.80
2018-08-24T13:02:49.554Z,8.80
2018-08-24T13:05:30.101Z,9.40
2018-08-24T13:08:11.601Z,10.00
2018-08-24T13:10:52.931Z,11.27
2018-08-24T13:13:33.541Z,11.30
2018-08-24T13:16:15.025Z,10.00
2018-08-24T13:18:55.576Z,10.83
2018-08-24T13:21:36.143Z,11.07
2018-08-24T13:24:17.670Z,11.30
2018-08-24T13:26:58.356Z,10.53
2018-08-24T13:29:40.014Z,12.20
2018-08-24T13:32:21.319Z,11.97
2018-08-24T13:35:02.733Z,12.23
2018-08-24T13:37:44.238Z,11.37
2018-08-24T13:40:24.934Z,12.20
2018-08-24T13:43:06.756Z,11.90
2018-08-24T13:45:48.242Z,11.30
2018-08-24T13:48:29.585Z,12.47
2018-08-24T13:51:10.176Z,12.17
2018-08-24T13:53:50.885Z,12.13
2018-08-24T13:56:32.354Z,11.90
2018-08-24T13:59:13.832Z,11.00
2018-08-24T14:01:55.350Z,12.30
2018-08-24T14:04:35.906Z,10.93
2018-08-24T14:07:16.624Z,10.20
2018-08-24T14:09:58.058Z,9.70
2018-08-24T14:12:38.563Z,10.40
2018-08-24T14:15:19.109Z,9.57
2018-08-24T14:18:00.026Z,9.93
2018-08-24T14:20:41.246Z,10.13
2018-08-24T14:23:21.970Z,10.93
2018-08-24T14:26:02.705Z,10.43
2018-08-24T14:28:44.005Z,10.20
2018-08-24T14:31:25.145Z,10.70
2018-08-24T14:34:06.085Z,10.13
2018-08-24T14:36:46.689Z,10.43
2018-08-24T14:39:27.245Z,10.00
2018-08-24T14:42:07.886Z,9.23
2018-08-24T14:44:48.369Z,9.87
2018-08-24T14:47:29.872Z,9.10
2018-08-24T14:50:10.577Z,10.50
2018-08-24T14:52:52.149Z,9.40
2018-08-24T14:55:32.753Z,10.20
2018-08-24T14:58:14.151Z,10.07
2018-08-24T15:00:54.802Z,10.47
2018-08-24T15:03:36.348Z,10.10
2018-08-24T15:06:16.959Z,9.27
2018-08-24T15:08:58.501Z,11.17
2018-08-24T15:11:40.300Z,11.60
2018-08-24T15:14:21.517Z,10.43
2018-08-24T15:17:02.442Z,10.90
2018-08-24T15:19:43.773Z,10.50
2018-08-24T15:22:24.938Z,10.40
2018-08-24T15:25:05.998Z,10.97
2018-08-24T15:27:47.428Z,10.10
2018-08-24T15:30:27.999Z,11.03
2018-08-24T15:33:08.669Z,11.43
2018-08-24T15:35:50.144Z,11.20
2018-08-24T15:38:30.858Z,10.20
2018-08-24T15:41:11.389Z,10.70
2018-08-24T15:43:51.974Z,10.00
2018-08-24T15:46:32.910Z,9.70
2018-08-24T15:49:14.270Z,10.50
2018-08-24T15:51:56.726Z,10.77
2018-08-24T15:54:37.413Z,10.30
2018-08-24T15:57:18.918Z,10.43
2018-08-24T15:59:59.619Z,10.13
2018-08-24T16:02:41.112Z,9.77
2018-08-24T16:05:21.916Z,10.53
2018-08-24T16:08:03.288Z,10.03
2018-08-24T16:10:44.765Z,10.00
2018-08-24T16:13:25.506Z,8.80
2018-08-24T16:16:07.600Z,9.53
2018-08-24T16:18:48.552Z,9.13
2018-08-24T16:21:29.078Z,8.77
2018-08-24T16:24:09.737Z,9.60
2018-08-24T16:26:50.441Z,9.00
2018-08-24T16:29:36.072Z,9.70
2018-08-24T16:32:17.542Z,9.00
2018-08-24T16:34:58.273Z,9.17
2018-08-24T16:37:39.712Z,9.10
2018-08-24T16:40:20.288Z,8.30
2018-08-24T16:43:00.875Z,9.23
2018-08-24T16:45:42.390Z,9.90
2018-08-24T16:48:23.066Z,7.47
2018-08-24T16:51:03.780Z,8.67
2018-08-24T16:53:45.465Z,8.73
2018-08-24T16:56:27.023Z,8.73
2018-08-24T16:59:08.487Z,8.23
2018-08-24T17:01:49.989Z,7.77
2018-08-24T17:04:31.529Z,9.50
2018-08-24T17:07:12.024Z,9.03
2018-08-24T17:09:52.562Z,8.10
2018-08-24T17:12:33.888Z,9.33
2018-08-24T17:15:14.786Z,7.83
2018-08-24T17:17:56.930Z,8.37
2018-08-24T17:20:38.334Z,8.60
2018-08-24T17:23:19.479Z,8.83
2018-08-24T17:26:00.099Z,9.20
2018-08-24T17:28:40.829Z,9.10
2018-08-24T17:31:22.222Z,9.50
2018-08-24T17:34:03.790Z,8.83
2018-08-24T17:36:45.082Z,9.77
2018-08-24T17:39:25.722Z,10.60
2018-08-24T17:42:07.906Z,10.50
2018-08-24T17:44:48.990Z,8.57
2018-08-24T17:47:29.729Z,10.43
2018-08-24T17:50:11.176Z,10.77
2018-08-24T17:52:52.787Z,9.50
2018-08-24T17:55:34.242Z,9.80
2018-08-24T17:58:15.677Z,9.70
2018-08-24T18:00:56.339Z,11.10
2018-08-24T18:03:36.941Z,10.53
2018-08-24T18:06:17.906Z,10.43
2018-08-24T18:08:59.465Z,10.70
2018-08-24T18:11:41.643Z,10.57
2018-08-24T18:14:22.233Z,9.80
2018-08-24T18:17:03.073Z,10.73
2018-08-24T18:19:44.356Z,8.97
2018-08-24T18:22:25.093Z,9.33
2018-08-24T18:25:05.708Z,10.03
2018-08-24T18:27:46.231Z,9.87
2018-08-24T18:30:26.881Z,11.17
2018-08-24T18:33:08.492Z,10.00
2018-08-24T18:35:49.858Z,9.90
2018-08-24T18:38:30.456Z,9.50
2018-08-24T18:41:11.943Z,9.57
2018-08-24T18:43:52.464Z,10.20
2018-08-24T18:46:33.111Z,10.67
2018-08-24T18:49:13.642Z,10.03
2018-08-24T18:51:54.314Z,10.43
2018-08-24T18:54:35.758Z,10.50
2018-08-24T18:57:16.438Z,8.97
2018-08-24T18:59:57.496Z,10.40
2018-08-24T19:02:38.757Z,10.13
2018-08-24T19:05:20.219Z,11.20
2018-08-24T19:08:06.199Z,11.30
2018-08-24T19:10:52.573Z,11.30
2018-08-24T19:13:33.883Z,11.87
2018-08-24T19:16:14.366Z,11.70
2018-08-24T19:19:00.018Z,11.73
2018-08-24T19:21:41.877Z,10.10
2018-08-24T19:24:23.067Z,10.93
2018-08-24T19:27:05.384Z,10.13
2018-08-24T19:29:51.186Z,11.60
2018-08-24T19:32:33.272Z,10.00
2018-08-24T19:35:14.234Z,11.80
2018-08-24T19:37:54.877Z,11.23
2018-08-24T19:40:40.379Z,10.50
2018-08-24T19:43:21.122Z,9.93
2018-08-24T19:46:02.635Z,10.13
2018-08-24T19:48:49.494Z,9.60
2018-08-24T19:51:30.582Z,10.47
2018-08-24T19:54:11.490Z,11.63
2018-08-24T19:56:52.986Z,12.30
2018-08-24T19:59:33.528Z,12.63
2018-08-24T20:02:14.057Z,10.80
2018-08-24T20:04:55.537Z,10.00
2018-08-24T20:07:41.472Z,12.17
2018-08-24T20:10:22.849Z,20.83
2018-08-24T20:13:03.520Z,15.67
2018-08-24T20:15:49.030Z,10.93
2018-08-24T20:18:29.752Z,11.70
2018-08-24T20:21:11.205Z,12.00
2018-08-24T20:23:51.763Z,11.80
2018-08-24T20:26:32.432Z,10.40
2018-08-24T20:29:13.137Z,10.70
2018-08-24T20:31:53.782Z,10.23
2018-08-24T20:34:35.293Z,10.97
2018-08-24T20:37:15.811Z,10.10
2018-08-24T20:39:56.458Z,8.90
2018-08-24T20:42:36.990Z,10.93
2018-08-24T20:45:17.553Z,10.43
2018-08-24T20:47:58.085Z,10.80
2018-08-24T20:50:38.700Z,9.70
2018-08-24T20:53:20.147Z,10.93
2018-08-24T20:56:00.668Z,10.70
2018-08-24T20:58:41.380Z,11.57
2018-08-24T21:01:22.265Z,9.93
2018-08-24T21:04:03.791Z,10.27
2018-08-24T21:06:45.049Z,10.40
2018-08-24T21:09:26.558Z,9.67
2018-08-24T21:12:07.743Z,10.47
2018-08-24T21:14:48.746Z,11.57
2018-08-24T21:17:29.521Z,10.07
2018-08-24T21:20:11.203Z,9.70
2018-08-24T21:22:51.749Z,10.20
2018-08-24T21:25:32.314Z,9.93
2018-08-24T21:28:13.777Z,10.60
2018-08-24T21:30:54.381Z,10.80
2018-08-24T21:33:35.034Z,9.80
2018-08-24T21:36:16.494Z,9.53
2018-08-24T21:38:58.118Z,9.60
2018-08-24T21:41:40.229Z,11.43
2018-08-24T21:44:21.413Z,10.67
2018-08-24T21:47:02.174Z,11.00
2018-08-24T21:49:43.043Z,10.47
2018-08-24T21:52:24.423Z,9.67
2018-08-24T21:55:05.082Z,10.13
2018-08-24T21:57:46.541Z,9.20
2018-08-24T22:00:27.162Z,9.07
2018-08-24T22:03:08.061Z,9.90
2018-08-24T22:05:49.329Z,10.03
2018-08-24T22:08:30.842Z,10.93
2018-08-24T22:11:12.238Z,11.20
2018-08-24T22:13:53.665Z,10.93
2018-08-24T22:16:34.529Z,10.60
2018-08-24T22:19:15.966Z,11.20
2018-08-24T22:21:56.698Z,11.53
2018-08-24T22:24:38.185Z,12.60
2018-08-24T22:27:18.737Z,11.30
2018-08-24T22:29:59.505Z,11.60
2018-08-24T22:32:40.844Z,9.83
2018-08-24T22:35:22.238Z,9.77
2018-08-24T22:38:02.755Z,12.30
2018-08-24T22:40:43.457Z,11.53
2018-08-24T22:43:29.173Z,11.50
2018-08-24T22:46:10.633Z,11.30
2018-08-24T22:48:51.362Z,12.37
2018-08-24T22:51:31.939Z,10.30
2018-08-24T22:54:12.546Z,11.07
2018-08-24T22:56:53.221Z,12.77
2018-08-24T22:59:34.586Z,11.47
2018-08-24T23:02:15.125Z,10.40
2018-08-24T23:04:55.748Z,11.70
2018-08-24T23:07:36.394Z,11.57
2018-08-24T23:10:17.918Z,11.70
2018-08-24T23:12:58.568Z,12.10
2018-08-24T23:15:39.194Z,12.40
2018-08-24T23:18:19.731Z,9.90
2018-08-24T23:21:01.269Z,12.70
2018-08-24T23:23:41.833Z,11.03
2018-08-24T23:26:22.602Z,12.37
2018-08-24T23:29:04.170Z,10.80
2018-08-24T23:31:44.669Z,11.33
2018-08-24T23:34:26.156Z,10.70
2018-08-24T23:37:07.124Z,11.73
2018-08-24T23:39:48.449Z,10.17
2018-08-24T23:42:29.084Z,10.70
2018-08-24T23:45:09.711Z,10.70
2018-08-24T23:47:51.041Z,11.30
2018-08-24T23:50:31.677Z,11.10
2018-08-24T23:53:12.665Z,11.37
2018-08-24T23:55:53.809Z,11.13
2018-08-24T23:58:34.399Z,10.30
